createdAt,value
2023-04-09T00:01:05.550Z,69.89
2023-04-09T00:03:33.537Z,70.20
2023-04-09T00:06:02.631Z,70.09
2023-04-09T00:08:30.232Z,69.70
2023-04-09T00:10:58.726Z,70.03
2023-04-09T00:13:38.664Z,69.79
2023-04-09T00:16:07.569Z,69.80
2023-04-09T00:18:35.135Z,70.31
2023-04-09T00:21:04.002Z,70.61
2023-04-09T00:23:31.462Z,70.70
2023-04-09T00:25:58.927Z,70.62
2023-04-09T00:28:26.413Z,70.48
2023-04-09T00:30:53.868Z,70.04
2023-04-09T00:33:21.313Z,70.16
2023-04-09T00:35:48.811Z,70.73
2023-04-09T00:38:17.767Z,71.22
2023-04-09T00:40:45.803Z,70.72
2023-04-09T00:43:13.259Z,70.87
2023-04-09T00:45:40.762Z,70.63
2023-04-09T00:48:08.621Z,70.69
2023-04-09T00:50:36.182Z,70.91
2023-04-09T00:53:03.703Z,71.33
2023-04-09T00:55:32.824Z,71.10
2023-04-09T00:58:00.337Z,71.64
2023-04-09T01:00:27.990Z,71.54
2023-04-09T01:02:57.557Z,71.96
2023-04-09T01:05:25.949Z,71.76
2023-04-09T01:08:02.952Z,71.38
2023-04-09T01:10:37.376Z,71.49
2023-04-09T01:13:09.368Z,71.77
2023-04-09T01:15:41.282Z,71.35
2023-04-09T01:18:11.537Z,71.53
2023-04-09T01:20:41.616Z,71.75
2023-04-09T01:23:17.800Z,71.97
2023-04-09T01:25:56.776Z,72.35
2023-04-09T01:28:28.844Z,71.97
2023-04-09T01:31:00.493Z,71.60
2023-04-09T01:33:28.515Z,72.13
2023-04-09T01:35:56.310Z,71.89
2023-04-09T01:38:25.085Z,72.10
2023-04-09T01:40:53.732Z,72.13
2023-04-09T01:43:21.576Z,72.06
2023-04-09T01:45:51.620Z,72.48
2023-04-09T01:48:19.722Z,72.53
2023-04-09T01:50:47.284Z,72.89
2023-04-09T01:53:14.866Z,72.74
2023-04-09T01:55:42.337Z,72.59
2023-04-09T01:58:09.792Z,72.94
2023-04-09T02:00:40.220Z,72.54
2023-04-09T02:03:11.864Z,73.23
2023-04-09T02:05:43.372Z,73.02
2023-04-09T02:08:13.955Z,73.35
2023-04-09T02:10:41.578Z,73.58
2023-04-09T02:13:10.846Z,74.27
2023-04-09T02:15:40.322Z,73.90
2023-04-09T02:18:21.970Z,74.79
2023-04-09T02:20:49.500Z,74.46
2023-04-09T02:23:17.059Z,75.27
2023-04-09T02:25:44.915Z,75.13
2023-04-09T02:28:12.368Z,74.63
2023-04-09T02:30:39.836Z,74.99
2023-04-09T02:33:07.310Z,75.36
2023-04-09T02:35:36.266Z,74.91
2023-04-09T02:38:04.194Z,75.48
2023-04-09T02:40:31.634Z,75.04
2023-04-09T02:42:59.204Z,75.67
2023-04-09T02:45:26.731Z,75.99
2023-04-09T02:47:54.193Z,76.10
2023-04-09T02:50:21.900Z,76.16
2023-04-09T02:52:51.694Z,76.97
2023-04-09T02:55:19.422Z,77.12
2023-04-09T02:57:46.873Z,77.61
2023-04-09T03:00:14.871Z,77.70
2023-04-09T03:02:42.509Z,77.08
2023-04-09T03:05:10.554Z,77.67
2023-04-09T03:07:38.000Z,77.16
2023-04-09T03:10:07.669Z,77.10
2023-04-09T03:12:35.352Z,77.12
2023-04-09T03:15:02.820Z,77.34
2023-04-09T03:17:31.913Z,77.33
2023-04-09T03:19:59.467Z,76.91
2023-04-09T03:22:26.908Z,77.70
2023-04-09T03:24:54.368Z,77.55
2023-04-09T03:27:23.180Z,78.04
2023-04-09T03:29:50.640Z,78.74
2023-04-09T03:32:19.052Z,77.92
2023-04-09T03:34:46.687Z,78.60
2023-04-09T03:37:14.153Z,78.28
2023-04-09T03:39:41.730Z,78.96
2023-04-09T03:42:09.158Z,78.56
2023-04-09T03:44:37.956Z,78.25
2023-04-09T03:47:05.402Z,78.70
2023-04-09T03:49:32.873Z,79.28
2023-04-09T03:52:00.329Z,78.42
2023-04-09T03:54:30.100Z,78.59
2023-04-09T03:56:57.684Z,79.56
2023-04-09T03:59:25.352Z,78.85
2023-04-09T04:01:54.211Z,79.47
2023-04-09T04:04:23.806Z,79.75
2023-04-09T04:06:51.634Z,80.05
2023-04-09T04:09:19.156Z,79.92
2023-04-09T04:11:46.599Z,80.04
2023-04-09T04:14:14.094Z,80.78
2023-04-09T04:16:41.827Z,80.92
2023-04-09T04:19:10.857Z,80.60
2023-04-09T04:21:38.329Z,81.66
2023-04-09T04:24:06.148Z,83.29
2023-04-09T04:26:33.602Z,85.07
2023-04-09T04:29:01.055Z,85.56
2023-04-09T04:31:28.540Z,86.34
2023-04-09T04:33:55.974Z,86.66
2023-04-09T04:36:24.787Z,87.68
2023-04-09T04:38:52.313Z,87.93
2023-04-09T04:41:19.895Z,89.02
2023-04-09T04:43:48.056Z,89.37
2023-04-09T04:46:15.639Z,89.47
2023-04-09T04:48:43.178Z,90.03
2023-04-09T04:51:10.714Z,89.83
2023-04-09T04:53:39.531Z,90.17
2023-04-09T04:56:07.333Z,90.00
2023-04-09T04:58:34.827Z,89.37
2023-04-09T05:01:02.343Z,89.67
2023-04-09T05:03:29.873Z,90.09
2023-04-09T05:05:57.387Z,89.69
2023-04-09T05:08:24.844Z,89.64
2023-04-09T05:10:55.950Z,89.55
2023-04-09T05:13:23.687Z,89.71
2023-04-09T05:15:51.203Z,90.29
2023-04-09T05:18:18.674Z,90.33
2023-04-09T05:20:46.138Z,90.92
2023-04-09T05:23:13.653Z,91.77
2023-04-09T05:25:41.156Z,91.69
2023-04-09T05:28:11.107Z,91.69
2023-04-09T05:30:38.558Z,91.51
2023-04-09T05:33:06.079Z,91.36
2023-04-09T05:35:33.551Z,91.44
2023-04-09T05:38:01.022Z,91.63
2023-04-09T05:40:28.453Z,91.63
2023-04-09T05:42:55.963Z,92.01
2023-04-09T05:45:24.748Z,92.21
2023-04-09T05:47:52.257Z,92.09
2023-04-09T05:50:19.710Z,91.68
2023-04-09T05:52:47.262Z,91.84
2023-04-09T05:55:14.949Z,90.38
2023-04-09T05:57:42.662Z,89.66
2023-04-09T06:00:10.830Z,90.35
2023-04-09T06:02:39.691Z,89.71
2023-04-09T06:05:07.488Z,87.78
2023-04-09T06:07:34.936Z,88.39
2023-04-09T06:10:02.649Z,87.82
2023-04-09T06:12:30.244Z,87.54
2023-04-09T06:14:57.676Z,86.58
2023-04-09T06:17:25.251Z,86.86
2023-04-09T06:19:54.053Z,86.30
2023-04-09T06:22:21.510Z,85.86
2023-04-09T06:24:48.979Z,85.11
2023-04-09T06:27:16.573Z,84.57
2023-04-09T06:29:44.014Z,84.80
2023-04-09T06:32:11.459Z,84.33
2023-04-09T06:34:39.071Z,83.00
2023-04-09T06:37:07.990Z,83.19
2023-04-09T06:39:35.931Z,83.77
2023-04-09T06:42:04.689Z,82.37
2023-04-09T06:44:32.313Z,81.69
2023-04-09T06:46:59.799Z,81.73
2023-04-09T06:49:27.282Z,81.08
2023-04-09T06:51:54.750Z,80.82
2023-04-09T06:54:23.532Z,80.67
2023-04-09T06:56:51.845Z,80.33
2023-04-09T06:59:19.294Z,80.24
2023-04-09T07:01:47.670Z,79.59
2023-04-09T07:04:15.471Z,78.76
2023-04-09T07:06:43.010Z,78.66
2023-04-09T07:09:10.536Z,78.23
2023-04-09T07:11:39.319Z,77.73
2023-04-09T07:14:06.761Z,77.11
2023-04-09T07:16:34.378Z,77.11
2023-04-09T07:19:02.078Z,77.09
2023-04-09T07:21:29.525Z,77.25
2023-04-09T07:23:57.509Z,76.34
2023-04-09T07:26:25.116Z,76.37
2023-04-09T07:28:53.992Z,76.35
2023-04-09T07:31:21.510Z,76.32
2023-04-09T07:33:49.005Z,75.60
2023-04-09T07:36:16.487Z,75.83
2023-04-09T07:38:44.469Z,75.88
2023-04-09T07:41:12.110Z,75.59
2023-04-09T07:43:40.155Z,75.40
2023-04-09T07:46:08.942Z,75.54
2023-04-09T07:48:36.396Z,75.10
2023-04-09T07:51:04.485Z,75.41
2023-04-09T07:53:31.963Z,74.68
2023-04-09T07:55:59.421Z,73.99
2023-04-09T07:58:26.952Z,73.70
2023-04-09T08:00:54.444Z,73.80
2023-04-09T08:03:23.764Z,73.08
2023-04-09T08:05:51.384Z,73.16
2023-04-09T08:08:19.809Z,73.24
2023-04-09T08:10:47.849Z,73.18
2023-04-09T08:13:15.454Z,72.05
2023-04-09T08:15:42.977Z,71.79
2023-04-09T08:18:10.459Z,71.71
2023-04-09T08:20:44.750Z,71.16
2023-04-09T08:23:12.298Z,71.08
2023-04-09T08:25:39.730Z,69.52
2023-04-09T08:28:07.296Z,69.59
2023-04-09T08:30:34.878Z,68.96
2023-04-09T08:33:02.764Z,69.15
2023-04-09T08:35:31.328Z,68.25
2023-04-09T08:38:00.476Z,68.93
2023-04-09T08:40:27.960Z,67.03
2023-04-09T08:42:57.109Z,67.78
2023-04-09T08:45:24.995Z,66.39
2023-04-09T08:47:53.225Z,66.34
2023-04-09T08:50:21.006Z,65.18
2023-04-09T08:52:49.134Z,65.62
2023-04-09T08:55:18.333Z,66.56
2023-04-09T08:57:45.915Z,64.77
2023-04-09T09:00:14.284Z,64.50
2023-04-09T09:03:02.599Z,64.88
2023-04-09T09:05:37.001Z,64.02
2023-04-09T09:08:04.639Z,63.98
2023-04-09T09:10:40.561Z,63.59
2023-04-09T09:13:18.581Z,62.35
2023-04-09T09:15:47.670Z,62.52
2023-04-09T09:18:15.484Z,63.31
2023-04-09T09:20:43.186Z,63.43
2023-04-09T09:23:10.728Z,63.23
2023-04-09T09:25:43.266Z,61.76
2023-04-09T09:28:12.195Z,62.58
2023-04-09T09:30:41.001Z,62.49
2023-04-09T09:33:09.851Z,62.01
2023-04-09T09:35:48.779Z,62.39
2023-04-09T09:38:17.075Z,62.34
2023-04-09T09:40:46.434Z,60.86
2023-04-09T09:43:14.740Z,60.66
2023-04-09T09:45:43.494Z,60.57
2023-04-09T09:48:11.973Z,59.51
2023-04-09T09:50:41.686Z,60.33
2023-04-09T09:53:10.432Z,59.46
2023-04-09T09:55:40.343Z,58.68
2023-04-09T09:58:16.517Z,57.30
2023-04-09T10:00:44.878Z,59.13
2023-04-09T10:03:15.786Z,58.80
2023-04-09T10:05:43.440Z,57.06
2023-04-09T10:08:11.899Z,59.41
2023-04-09T10:10:41.954Z,59.28
2023-04-09T10:13:16.577Z,57.35
2023-04-09T10:15:46.008Z,57.09
2023-04-09T10:18:13.676Z,56.36
2023-04-09T10:20:44.895Z,55.49
2023-04-09T10:23:18.304Z,56.37
2023-04-09T10:25:46.355Z,56.19
2023-04-09T10:28:18.548Z,56.74
2023-04-09T10:30:46.312Z,55.78
2023-04-09T10:33:15.021Z,57.02
2023-04-09T10:35:42.616Z,55.89
2023-04-09T10:38:10.809Z,55.84
2023-04-09T10:40:42.411Z,58.44
2023-04-09T10:43:10.679Z,58.03
2023-04-09T10:45:43.373Z,55.76
2023-04-09T10:48:14.846Z,56.61
2023-04-09T10:50:44.691Z,55.34
2023-04-09T10:53:23.010Z,53.52
2023-04-09T10:55:51.235Z,52.98
2023-04-09T10:58:18.807Z,53.03
2023-04-09T11:00:48.824Z,53.13
2023-04-09T11:03:21.907Z,53.21
2023-04-09T11:05:52.953Z,55.91
2023-04-09T11:08:21.964Z,57.42
2023-04-09T11:10:51.963Z,58.12
2023-04-09T11:13:21.174Z,55.26
2023-04-09T11:15:50.118Z,51.92
2023-04-09T11:18:21.498Z,52.85
2023-04-09T11:20:49.040Z,52.22
2023-04-09T11:23:17.395Z,50.35
2023-04-09T11:25:49.597Z,48.16
2023-04-09T11:28:17.068Z,47.84
2023-04-09T11:30:46.716Z,48.47
2023-04-09T11:33:18.239Z,47.14
2023-04-09T11:35:47.215Z,45.88
2023-04-09T11:38:14.857Z,42.50
2023-04-09T11:40:48.101Z,45.23
2023-04-09T11:43:17.023Z,43.36
2023-04-09T11:45:45.020Z,43.02
2023-04-09T11:48:12.926Z,42.28
2023-04-09T11:50:42.356Z,45.71
2023-04-09T11:53:19.909Z,43.19
2023-04-09T11:55:49.205Z,46.44
2023-04-09T11:58:17.293Z,45.32
2023-04-09T12:00:45.291Z,43.67
2023-04-09T12:03:13.248Z,44.87
2023-04-09T12:05:50.537Z,42.66
2023-04-09T12:08:24.172Z,43.86
2023-04-09T12:10:53.660Z,43.35
2023-04-09T12:13:21.866Z,43.55
2023-04-09T12:15:50.495Z,45.18
2023-04-09T12:18:18.050Z,44.20
2023-04-09T12:20:49.669Z,42.59
2023-04-09T12:23:17.506Z,44.49
2023-04-09T12:25:46.912Z,43.71
2023-04-09T12:28:17.890Z,45.44
2023-04-09T12:30:45.760Z,45.11
2023-04-09T12:33:13.321Z,46.36
2023-04-09T12:35:40.874Z,47.23
2023-04-09T12:38:09.673Z,45.30
2023-04-09T12:40:37.596Z,45.63
2023-04-09T12:43:05.344Z,43.08
2023-04-09T12:45:33.495Z,43.03
2023-04-09T12:48:00.968Z,44.33
2023-04-09T12:50:28.695Z,43.34
2023-04-09T12:52:56.384Z,43.82
2023-04-09T12:55:25.254Z,44.11
2023-04-09T12:57:53.012Z,43.76
2023-04-09T13:00:20.727Z,46.18
2023-04-09T13:02:48.395Z,46.18
2023-04-09T13:05:16.013Z,43.11
2023-04-09T13:07:43.784Z,41.81
2023-04-09T13:10:11.884Z,41.89
2023-04-09T13:12:41.086Z,44.52
2023-04-09T13:15:08.961Z,43.03
2023-04-09T13:17:36.478Z,40.93
2023-04-09T13:20:04.629Z,40.61
2023-04-09T13:22:32.233Z,38.94
2023-04-09T13:24:59.822Z,39.90
2023-04-09T13:27:27.362Z,38.86
2023-04-09T13:29:56.172Z,39.80
2023-04-09T13:32:24.184Z,38.20
2023-04-09T13:34:53.650Z,39.45
2023-04-09T13:37:21.336Z,40.00
2023-04-09T13:39:48.826Z,39.80
2023-04-09T13:42:16.992Z,41.16
2023-04-09T13:44:45.516Z,40.30
2023-04-09T13:47:15.897Z,39.88
2023-04-09T13:49:44.186Z,38.84
2023-04-09T13:52:11.944Z,40.52
2023-04-09T13:54:39.466Z,40.00
2023-04-09T13:57:06.956Z,40.93
2023-04-09T13:59:34.423Z,40.71
2023-04-09T14:02:02.002Z,39.90
2023-04-09T14:04:30.966Z,39.93
2023-04-09T14:06:58.494Z,39.46
2023-04-09T14:09:25.985Z,39.54
2023-04-09T14:11:54.759Z,39.99
2023-04-09T14:14:22.292Z,40.19
2023-04-09T14:16:50.288Z,41.79
2023-04-09T14:19:18.005Z,41.78
2023-04-09T14:21:46.833Z,43.09
2023-04-09T14:24:14.420Z,40.52
2023-04-09T14:26:41.894Z,42.38
2023-04-09T14:29:09.379Z,42.40
2023-04-09T14:31:36.843Z,40.77
2023-04-09T14:34:04.362Z,40.34
2023-04-09T14:36:32.147Z,40.41
2023-04-09T14:39:01.090Z,39.90
2023-04-09T14:41:28.633Z,42.49
2023-04-09T14:43:56.242Z,41.78
2023-04-09T14:46:23.728Z,41.24
2023-04-09T14:48:51.620Z,42.03
2023-04-09T14:51:19.356Z,40.33
2023-04-09T14:53:47.368Z,40.94
2023-04-09T14:56:16.194Z,44.09
2023-04-09T14:58:43.725Z,43.49
2023-04-09T15:01:11.263Z,42.48
2023-04-09T15:03:42.391Z,43.24
2023-04-09T15:06:10.399Z,43.30
2023-04-09T15:08:37.887Z,42.71
2023-04-09T15:11:06.038Z,43.69
2023-04-09T15:13:34.853Z,42.83
2023-04-09T15:16:02.368Z,41.01
2023-04-09T15:18:29.898Z,42.26
2023-04-09T15:20:57.375Z,41.10
2023-04-09T15:23:24.849Z,40.29
2023-04-09T15:25:52.359Z,41.49
2023-04-09T15:28:19.821Z,40.69
2023-04-09T15:30:48.641Z,41.23
2023-04-09T15:33:16.310Z,43.83
2023-04-09T15:35:43.844Z,41.83
2023-04-09T15:38:11.413Z,42.80
2023-04-09T15:40:41.057Z,42.67
2023-04-09T15:43:08.492Z,42.98
2023-04-09T15:45:35.984Z,42.72
2023-04-09T15:48:05.424Z,42.27
2023-04-09T15:50:33.058Z,43.49
2023-04-09T15:53:00.501Z,42.09
2023-04-09T15:55:27.958Z,40.26
2023-04-09T15:57:55.487Z,39.47
2023-04-09T16:00:24.181Z,39.18
2023-04-09T16:02:52.987Z,39.25
2023-04-09T16:05:22.119Z,38.31
2023-04-09T16:07:51.032Z,39.11
2023-04-09T16:10:18.562Z,38.60
2023-04-09T16:12:46.002Z,38.61
2023-04-09T16:15:13.467Z,38.86
2023-04-09T16:17:41.341Z,37.58
2023-04-09T16:20:09.646Z,37.91
2023-04-09T16:22:38.486Z,38.10
2023-04-09T16:25:06.869Z,37.66
2023-04-09T16:27:34.343Z,37.36
2023-04-09T16:30:01.930Z,38.93
2023-04-09T16:32:29.490Z,38.90
2023-04-09T16:35:00.451Z,38.65
2023-04-09T16:37:29.148Z,40.09
2023-04-09T16:39:58.160Z,39.80
2023-04-09T16:42:27.326Z,39.95
2023-04-09T16:44:55.259Z,39.36
2023-04-09T16:47:22.809Z,39.43
2023-04-09T16:49:50.276Z,39.57
2023-04-09T16:52:17.745Z,39.22
2023-04-09T16:54:45.301Z,39.58
2023-04-09T16:57:14.176Z,40.41
2023-04-09T16:59:42.624Z,39.81
2023-04-09T17:02:10.417Z,39.92
2023-04-09T17:04:38.258Z,39.76
2023-04-09T17:07:05.791Z,40.47
2023-04-09T17:09:33.281Z,40.42
2023-04-09T17:12:01.213Z,40.30
2023-04-09T17:14:30.180Z,41.94
2023-04-09T17:16:57.674Z,41.54
2023-04-09T17:19:25.454Z,41.66
2023-04-09T17:21:52.996Z,41.49
2023-04-09T17:24:20.633Z,41.77
2023-04-09T17:26:48.144Z,41.34
2023-04-09T17:29:16.445Z,41.07
2023-04-09T17:31:45.416Z,41.68
2023-04-09T17:34:13.487Z,41.58
2023-04-09T17:36:42.367Z,42.05
2023-04-09T17:39:09.889Z,41.85
2023-04-09T17:41:37.576Z,42.26
2023-04-09T17:44:05.182Z,42.77
2023-04-09T17:46:33.226Z,43.61
2023-04-09T17:49:02.205Z,43.61
2023-04-09T17:51:29.745Z,43.86
2023-04-09T17:53:57.221Z,43.70
2023-04-09T17:56:25.122Z,43.94
2023-04-09T17:58:52.687Z,44.34
2023-04-09T18:01:20.526Z,45.16
2023-04-09T18:03:49.373Z,45.94
2023-04-09T18:06:18.466Z,46.26
2023-04-09T18:08:45.965Z,48.00
2023-04-09T18:11:15.455Z,48.92
2023-04-09T18:13:43.017Z,50.82
2023-04-09T18:16:11.185Z,51.17
2023-04-09T18:18:41.963Z,53.29
2023-04-09T18:21:09.472Z,53.88
2023-04-09T18:23:40.050Z,55.26
2023-04-09T18:26:07.570Z,56.16
2023-04-09T18:28:35.484Z,55.86
2023-04-09T18:31:03.297Z,56.42
2023-04-09T18:33:30.781Z,57.59
2023-04-09T18:36:00.663Z,58.47
2023-04-09T18:38:29.584Z,58.40
2023-04-09T18:40:58.434Z,58.21
2023-04-09T18:43:25.981Z,58.71
2023-04-09T18:45:53.655Z,58.56
2023-04-09T18:48:21.181Z,59.19
2023-04-09T18:50:48.667Z,60.08
2023-04-09T18:53:16.601Z,60.76
2023-04-09T18:55:44.149Z,59.85
2023-04-09T18:58:14.915Z,59.40
2023-04-09T19:00:43.447Z,59.17
2023-04-09T19:03:12.067Z,60.84
2023-04-09T19:05:40.163Z,61.32
2023-04-09T19:08:07.757Z,60.75
2023-04-09T19:10:35.923Z,60.62
2023-04-09T19:13:04.086Z,61.83
2023-04-09T19:15:33.034Z,62.05
2023-04-09T19:18:00.608Z,62.38
2023-04-09T19:20:28.739Z,62.80
2023-04-09T19:22:56.727Z,62.15
2023-04-09T19:25:24.445Z,63.00
2023-04-09T19:27:54.057Z,63.15
2023-04-09T19:30:21.810Z,63.24
2023-04-09T19:32:50.758Z,63.42
2023-04-09T19:35:18.319Z,64.65
2023-04-09T19:37:45.978Z,64.47
2023-04-09T19:40:15.445Z,64.79
2023-04-09T19:42:42.957Z,65.01
2023-04-09T19:45:11.440Z,64.91
2023-04-09T19:47:38.934Z,65.62
2023-04-09T19:50:08.565Z,65.68
2023-04-09T19:52:37.745Z,66.33
2023-04-09T19:55:06.098Z,66.63
2023-04-09T19:57:33.878Z,66.74
2023-04-09T20:00:01.364Z,66.65
2023-04-09T20:02:29.211Z,66.67
2023-04-09T20:04:56.893Z,66.61
2023-04-09T20:07:26.317Z,65.85
2023-04-09T20:09:54.590Z,67.01
2023-04-09T20:12:23.717Z,67.27
2023-04-09T20:14:51.722Z,67.82
2023-04-09T20:17:20.658Z,67.77
2023-04-09T20:19:48.118Z,68.07
2023-04-09T20:22:16.163Z,67.94
2023-04-09T20:24:45.024Z,67.53
2023-04-09T20:27:12.670Z,67.39
2023-04-09T20:29:40.269Z,67.84
2023-04-09T20:32:07.906Z,68.63
2023-04-09T20:34:35.541Z,68.26
2023-04-09T20:37:05.479Z,68.60
2023-04-09T20:39:32.936Z,68.54
2023-04-09T20:42:01.779Z,68.14
2023-04-09T20:44:29.503Z,69.70
2023-04-09T20:46:57.026Z,69.64
2023-04-09T20:49:24.520Z,69.85
2023-04-09T20:51:52.027Z,70.12
2023-04-09T20:54:21.936Z,69.59
2023-04-09T20:56:49.879Z,70.24
2023-04-09T20:59:19.477Z,70.33
2023-04-09T21:01:47.087Z,69.83
2023-04-09T21:04:14.816Z,69.56
2023-04-09T21:06:42.491Z,69.41
2023-04-09T21:09:09.937Z,70.15
2023-04-09T21:11:37.437Z,69.90
2023-04-09T21:14:06.943Z,70.73
2023-04-09T21:16:35.736Z,71.03
2023-04-09T21:19:06.926Z,71.60
2023-04-09T21:21:34.631Z,72.35
2023-04-09T21:24:02.183Z,72.27
2023-04-09T21:26:35.972Z,72.32
2023-04-09T21:29:06.098Z,71.27
2023-04-09T21:31:33.633Z,71.81
2023-04-09T21:34:02.426Z,72.43
2023-04-09T21:36:30.349Z,72.42
2023-04-09T21:38:57.981Z,72.60
2023-04-09T21:41:25.594Z,72.21
2023-04-09T21:43:53.151Z,72.70
2023-04-09T21:46:21.518Z,72.54
2023-04-09T21:48:49.059Z,72.80
2023-04-09T21:51:17.915Z,73.21
2023-04-09T21:53:45.464Z,73.43
2023-04-09T21:56:12.899Z,73.36
2023-04-09T21:58:40.381Z,73.87
2023-04-09T22:01:15.842Z,73.57
2023-04-09T22:03:50.327Z,73.53
2023-04-09T22:06:19.211Z,73.71
2023-04-09T22:08:55.509Z,73.80
2023-04-09T22:11:25.785Z,74.15
2023-04-09T22:13:53.238Z,74.24
2023-04-09T22:16:20.880Z,74.84
2023-04-09T22:18:48.617Z,75.10
2023-04-09T22:21:16.552Z,75.58
2023-04-09T22:23:45.475Z,75.78
2023-04-09T22:26:12.974Z,75.03
2023-04-09T22:28:40.467Z,75.29
2023-04-09T22:31:08.560Z,75.52
2023-04-09T22:33:36.499Z,75.60
2023-04-09T22:36:04.032Z,77.35
2023-04-09T22:38:31.720Z,77.08
2023-04-09T22:41:01.424Z,77.29
2023-04-09T22:43:28.997Z,77.08
2023-04-09T22:45:57.136Z,77.21
2023-04-09T22:48:24.731Z,78.34
2023-04-09T22:50:52.404Z,78.35
2023-04-09T22:53:19.862Z,78.33
2023-04-09T22:55:48.737Z,78.02
2023-04-09T22:58:17.713Z,78.65
2023-04-09T23:00:45.377Z,78.96
2023-04-09T23:03:13.009Z,79.33
2023-04-09T23:05:41.312Z,79.06
2023-04-09T23:08:08.841Z,80.61
2023-04-09T23:10:36.654Z,81.06
2023-04-09T23:13:04.301Z,81.10
2023-04-09T23:15:33.240Z,81.33
2023-04-09T23:18:00.929Z,81.75
2023-04-09T23:20:28.488Z,82.21
2023-04-09T23:22:56.150Z,82.36
2023-04-09T23:25:23.746Z,82.59
2023-04-09T23:27:51.394Z,82.50
2023-04-09T23:30:20.269Z,82.64
2023-04-09T23:32:49.229Z,83.38
2023-04-09T23:35:16.837Z,84.21
2023-04-09T23:37:44.453Z,84.66
2023-04-09T23:40:12.754Z,85.60
2023-04-09T23:42:40.379Z,83.92
2023-04-09T23:45:08.910Z,82.71
2023-04-09T23:47:37.544Z,81.92
2023-04-09T23:50:10.703Z,82.88
2023-04-09T23:52:39.287Z,83.52
2023-04-09T23:55:08.591Z,83.61
2023-04-09T23:57:36.424Z,84.18
